Time;durP1;ratioP1;P1;durP2;ratioP2;P2;SDS_P1;SDS_P2;PMS_P1;PMS_P2;Temp;Humidity;BMP_temperature;BMP_pressure;BME280_temperature;BME280_humidity;BME280_pressure;Samples;Min_cycle;Max_cycle;Signal;HPM_P1;HPM_P2
2023/09/16 00:01:05;;;;;;;1.53;1.53;;;22.70;77.80;;;;;;5091117;27;43610;-70
2023/09/16 00:03:35;;;;;;;1.60;1.60;;;22.70;77.60;;;;;;5070940;27;45035;-69
2023/09/16 00:06:04;;;;;;;1.60;1.60;;;22.80;77.40;;;;;;5088298;27;43430;-70
2023/09/16 00:08:33;;;;;;;1.47;1.47;;;23.00;77.80;;;;;;5086502;27;43403;-70
2023/09/16 00:11:01;;;;;;;1.43;1.43;;;23.00;76.60;;;;;;5086978;27;44027;-72
2023/09/16 00:13:29;;;;;;;1.50;1.50;;;23.00;76.40;;;;;;5089145;27;43420;-70
2023/09/16 00:15:58;;;;;;;1.50;1.50;;;23.00;76.40;;;;;;5089604;27;43508;-70
2023/09/16 00:18:27;;;;;;;1.67;1.67;;;23.00;76.60;;;;;;5086646;27;43440;-69
2023/09/16 00:20:55;;;;;;;1.60;1.60;;;22.90;76.90;;;;;;5081348;27;44215;-70
2023/09/16 00:23:23;;;;;;;1.50;1.50;;;22.90;77.00;;;;;;5086318;27;43509;-69
2023/09/16 00:25:52;;;;;;;1.50;1.50;;;22.90;77.00;;;;;;5072418;28;43807;-70
2023/09/16 00:28:20;;;;;;;1.30;1.30;;;22.80;77.00;;;;;;5104204;27;43962;-69
2023/09/16 00:30:48;;;;;;;1.40;1.40;;;22.80;77.40;;;;;;5097676;28;45837;-69
2023/09/16 00:33:18;;;;;;;1.60;1.60;;;22.80;77.50;;;;;;5103854;27;45104;-68
2023/09/16 00:35:46;;;;;;;1.60;1.60;;;22.70;77.30;;;;;;5098683;27;43467;-68
2023/09/16 00:38:15;;;;;;;1.53;1.53;;;22.70;77.30;;;;;;5103031;27;43469;-68
2023/09/16 00:40:44;;;;;;;1.80;1.80;;;22.70;77.60;;;;;;5106767;27;45942;-68
2023/09/16 00:43:12;;;;;;;1.60;1.60;;;22.70;77.70;;;;;;5112527;27;45254;-68
2023/09/16 00:45:41;;;;;;;1.60;1.60;;;22.80;77.50;;;;;;5101764;28;43835;-68
2023/09/16 00:48:09;;;;;;;1.53;1.53;;;22.90;77.10;;;;;;5101306;28;43495;-68
2023/09/16 00:50:39;;;;;;;1.50;1.50;;;23.00;76.70;;;;;;5101815;28;45664;-70
2023/09/16 00:53:07;;;;;;;1.43;1.43;;;23.10;76.40;;;;;;5110939;27;43445;-69
2023/09/16 00:55:35;;;;;;;1.40;1.40;;;23.10;76.40;;;;;;5098843;27;43929;-69
2023/09/16 00:58:03;;;;;;;1.50;1.50;;;23.00;76.40;;;;;;5106946;27;43469;-69
2023/09/16 01:00:31;;;;;;;1.50;1.50;;;22.90;76.70;;;;;;5115661;27;45772;-69
2023/09/16 01:02:59;;;;;;;1.70;1.70;;;22.90;77.00;;;;;;5101001;27;44045;-69
2023/09/16 01:05:28;;;;;;;1.30;1.30;;;22.90;77.00;;;;;;5116052;27;43523;-69
2023/09/16 01:07:57;;;;;;;1.40;1.40;;;22.80;77.00;;;;;;5100323;28;43423;-69
2023/09/16 01:10:25;;;;;;;1.80;1.80;;;22.80;77.10;;;;;;5098109;28;45864;-68
2023/09/16 01:12:54;;;;;;;1.60;1.60;;;22.70;77.50;;;;;;5094220;28;44866;-68
2023/09/16 01:15:27;;;;;;;1.50;1.50;;;22.80;77.50;;;;;;5111416;27;43916;-68
2023/09/16 01:18:00;;;;;;;1.33;1.33;;;22.70;77.30;;;;;;5111170;27;43396;-68
2023/09/16 01:20:28;;;;;;;1.53;1.53;;;22.70;77.30;;;;;;5109568;27;46452;-68
2023/09/16 01:22:57;;;;;;;1.50;1.50;;;22.70;77.80;;;;;;5096453;28;44573;-68
2023/09/16 01:25:27;;;;;;;1.50;1.50;;;22.70;77.80;;;;;;5102731;28;43412;-69
2023/09/16 01:27:56;;;;;;;1.40;1.40;;;22.80;77.60;;;;;;5105575;27;43532;-68
2023/09/16 01:30:26;;;;;;;1.40;1.40;;;22.90;77.10;;;;;;5111954;27;43802;-69
2023/09/16 01:32:58;;;;;;;1.50;1.50;;;23.00;76.70;;;;;;5115566;27;43407;-69
2023/09/16 01:35:28;;;;;;;1.30;1.30;;;23.10;76.40;;;;;;5107444;27;43402;-69
2023/09/16 01:37:56;;;;;;;1.50;1.50;;;23.00;76.30;;;;;;5089321;28;43485;-68
2023/09/16 01:40:24;;;;;;;1.50;1.50;;;23.00;76.50;;;;;;5079994;28;45805;-67
2023/09/16 01:42:53;;;;;;;1.50;1.50;;;22.90;76.80;;;;;;5094725;28;43416;-67
2023/09/16 01:45:21;;;;;;;1.50;1.50;;;22.90;77.00;;;;;;5081181;28;44052;-67
2023/09/16 01:47:50;;;;;;;1.60;1.60;;;22.90;77.00;;;;;;5081389;28;43534;-67
2023/09/16 01:50:18;;;;;;;1.60;1.60;;;22.80;77.00;;;;;;5078203;28;45431;-67
2023/09/16 01:52:47;;;;;;;1.57;1.57;;;22.80;77.10;;;;;;5091020;27;43415;-67
2023/09/16 01:55:16;;;;;;;1.70;1.70;;;22.70;77.50;;;;;;5081521;27;43426;-67
2023/09/16 01:57:44;;;;;;;1.60;1.60;;;22.80;77.60;;;;;;5080496;28;43463;-66
2023/09/16 02:00:14;;;;;;;1.40;1.40;;;22.80;77.20;;;;;;5078216;27;45768;-67
2023/09/16 02:02:42;;;;;;;1.60;1.60;;;23.00;76.80;;;;;;5095462;27;44704;-67
2023/09/16 02:05:11;;;;;;;1.80;1.70;;;23.00;76.50;;;;;;5094244;28;43503;-66
2023/09/16 02:07:40;;;;;;;1.67;1.67;;;23.00;76.40;;;;;;5077310;28;43567;-67
2023/09/16 02:10:09;;;;;;;1.50;1.50;;;23.00;76.50;;;;;;5088772;27;43624;-67
2023/09/16 02:12:37;;;;;;;1.40;1.40;;;22.90;76.60;;;;;;5076284;27;44644;-67
2023/09/16 02:15:09;;;;;;;1.50;1.50;;;22.80;76.80;;;;;;5080014;28;43526;-66
2023/09/16 02:17:40;;;;;;;1.37;1.37;;;22.80;77.10;;;;;;5096558;27;43450;-67
2023/09/16 02:20:10;;;;;;;1.60;1.60;;;22.70;77.20;;;;;;5082215;28;46444;-66
2023/09/16 02:22:38;;;;;;;1.30;1.30;;;22.70;77.50;;;;;;5074694;27;44770;-68
2023/09/16 02:25:06;;;;;;;1.60;1.60;;;22.60;77.50;;;;;;5077978;28;43516;-67
2023/09/16 02:27:34;;;;;;;1.40;1.40;;;22.60;77.70;;;;;;5091734;28;43634;-66
2023/09/16 02:30:02;;;;;;;1.40;1.40;;;22.60;77.70;;;;;;5089006;27;43849;-66
2023/09/16 02:32:30;;;;;;;1.70;1.60;;;22.60;77.80;;;;;;5083824;28;43972;-66
2023/09/16 02:35:00;;;;;;;1.47;1.47;;;22.50;77.80;;;;;;5074312;28;43487;-67
2023/09/16 02:37:28;;;;;;;1.57;1.57;;;22.50;78.30;;;;;;5080453;28;43553;-66
2023/09/16 02:39:56;;;;;;;1.50;1.50;;;22.60;78.20;;;;;;5077813;28;46041;-66
2023/09/16 02:42:24;;;;;;;1.70;1.60;;;22.70;77.60;;;;;;5073592;28;44726;-67
2023/09/16 02:44:52;;;;;;;1.40;1.40;;;22.90;77.00;;;;;;5076640;28;43423;-66
2023/09/16 02:47:21;;;;;;;1.60;1.60;;;23.20;76.20;;;;;;5080166;28;43357;-69
2023/09/16 02:49:49;;;;;;;1.42;1.42;;;23.50;75.10;;;;;;5097694;27;44009;-69
2023/09/16 02:52:20;;;;;;;1.38;1.38;;;23.80;74.10;;;;;;5096478;27;44424;-69
2023/09/16 02:54:48;;;;;;;1.40;1.40;;;24.00;73.20;;;;;;5103647;27;43336;-68
2023/09/16 02:57:16;;;;;;;1.40;1.40;;;24.20;72.50;;;;;;5103662;27;43520;-68
2023/09/16 02:59:44;;;;;;;1.10;1.10;;;24.40;72.00;;;;;;5095828;27;45649;-68
2023/09/16 03:02:14;;;;;;;1.38;1.38;;;24.50;71.60;;;;;;5092967;27;43920;-68
2023/09/16 03:04:42;;;;;;;1.30;1.30;;;24.60;71.40;;;;;;5093035;27;43398;-70
2023/09/16 03:07:10;;;;;;;1.42;1.42;;;24.60;71.10;;;;;;5077932;28;43555;-69
2023/09/16 03:09:40;;;;;;;1.50;1.50;;;24.60;71.00;;;;;;5099590;27;44739;-69
2023/09/16 03:12:11;;;;;;;1.60;1.50;;;24.50;71.50;;;;;;5071564;27;43450;-70
2023/09/16 03:14:39;;;;;;;2.30;1.80;;;24.30;72.10;;;;;;5086119;27;43999;-69
2023/09/16 03:17:07;;;;;;;3.08;2.50;;;24.00;72.60;;;;;;5090610;28;43311;-70
2023/09/16 03:19:36;;;;;;;7.47;3.67;;;23.90;73.40;;;;;;5086870;28;45928;-69
2023/09/16 03:22:04;;;;;;;8.63;4.35;;;23.70;73.70;;;;;;5098147;27;44715;-70
2023/09/16 03:24:34;;;;;;;7.93;4.13;;;23.60;74.00;;;;;;5079417;28;43429;-69
2023/09/16 03:27:06;;;;;;;7.50;4.53;;;23.50;74.40;;;;;;5107876;28;43463;-69
2023/09/16 03:29:34;;;;;;;7.80;4.50;;;23.30;75.00;;;;;;5109274;28;46039;-69
2023/09/16 03:32:04;;;;;;;7.67;4.50;;;23.30;75.30;;;;;;5078249;28;43440;-69
2023/09/16 03:34:34;;;;;;;9.10;4.40;;;23.20;75.30;;;;;;5110810;27;43430;-68
2023/09/16 03:37:02;;;;;;;10.93;4.83;;;23.10;75.50;;;;;;5106808;27;43382;-68
2023/09/16 03:39:31;;;;;;;11.47;5.50;;;23.10;76.00;;;;;;5104047;27;43814;-68
2023/09/16 03:41:59;;;;;;;12.30;5.27;;;23.00;76.20;;;;;;5096330;28;44769;-69
2023/09/16 03:44:28;;;;;;;8.40;5.40;;;23.10;76.00;;;;;;5102408;28;43411;-69
2023/09/16 03:46:56;;;;;;;11.47;5.67;;;23.30;75.40;;;;;;5084470;27;43536;-68
2023/09/16 03:49:25;;;;;;;14.77;6.07;;;23.40;74.80;;;;;;5110042;27;45850;-68
2023/09/16 03:51:54;;;;;;;10.20;5.60;;;23.50;74.60;;;;;;5101205;27;44823;-68
2023/09/16 03:54:23;;;;;;;13.67;6.00;;;23.50;74.80;;;;;;5104378;28;43452;-68
2023/09/16 03:56:51;;;;;;;10.77;5.67;;;23.40;74.90;;;;;;5105097;27;43368;-70
2023/09/16 03:59:19;;;;;;;13.90;6.53;;;23.30;75.40;;;;;;5067053;28;45312;-72
2023/09/16 04:01:48;;;;;;;12.00;5.87;;;23.20;75.80;;;;;;5077966;28;44752;-72
2023/09/16 04:04:16;;;;;;;12.93;6.20;;;23.10;75.80;;;;;;5052562;28;43475;-72
2023/09/16 04:06:44;;;;;;;14.23;6.70;;;23.10;76.00;;;;;;5043759;28;43439;-73
2023/09/16 04:09:12;;;;;;;13.80;6.53;;;23.00;76.30;;;;;;5055591;28;45689;-72
2023/09/16 04:11:40;;;;;;;14.63;6.77;;;22.90;76.50;;;;;;5050079;28;44931;-73
2023/09/16 04:14:08;;;;;;;15.90;6.70;;;23.00;76.30;;;;;;5062492;28;43328;-72
2023/09/16 04:16:39;;;;;;;14.70;7.47;;;23.20;76.60;;;;;;5043839;28;43434;-72
2023/09/16 04:19:08;;;;;;;13.57;6.50;;;23.30;75.30;;;;;;5047610;28;45993;-72
2023/09/16 04:21:37;;;;;;;12.97;6.97;;;23.40;75.20;;;;;;5059173;28;43441;-72
2023/09/16 04:24:05;;;;;;;13.10;6.60;;;23.30;75.10;;;;;;5047902;28;43467;-72
2023/09/16 04:26:33;;;;;;;15.00;6.87;;;23.20;75.40;;;;;;5067087;28;43490;-72
2023/09/16 04:29:02;;;;;;;13.10;6.93;;;23.10;75.80;;;;;;5049606;28;45999;-72
2023/09/16 04:31:31;;;;;;;13.70;6.93;;;23.10;76.10;;;;;;5043900;28;43708;-71
2023/09/16 04:33:59;;;;;;;15.30;7.20;;;23.00;76.10;;;;;;5043876;28;43859;-72
2023/09/16 04:36:28;;;;;;;15.70;7.33;;;23.00;76.30;;;;;;5064659;28;43559;-72
2023/09/16 04:38:57;;;;;;;12.63;6.97;;;22.90;76.40;;;;;;5060057;28;45763;-72
2023/09/16 04:41:25;;;;;;;12.83;7.23;;;22.90;76.90;;;;;;5058530;28;44918;-72
2023/09/16 04:43:56;;;;;;;12.13;6.53;;;22.90;76.90;;;;;;5057438;28;43464;-73
2023/09/16 04:46:24;;;;;;;13.83;6.67;;;22.80;76.70;;;;;;5050508;28;43488;-72
2023/09/16 04:48:55;;;;;;;14.40;6.63;;;22.80;76.80;;;;;;5049696;28;46182;-73
2023/09/16 04:51:23;;;;;;;13.47;6.97;;;22.80;77.20;;;;;;5054876;28;44736;-72
2023/09/16 04:53:55;;;;;;;13.97;7.30;;;22.80;77.20;;;;;;5064744;28;43476;-72
2023/09/16 04:56:24;;;;;;;13.10;7.33;;;22.90;76.90;;;;;;5060562;28;43488;-72
2023/09/16 04:58:56;;;;;;;17.13;7.80;;;23.00;76.20;;;;;;5064891;28;45403;-72
2023/09/16 05:01:26;;;;;;;15.23;7.27;;;23.20;75.80;;;;;;5051267;28;44458;-72
2023/09/16 05:03:54;;;;;;;14.73;7.63;;;23.30;75.60;;;;;;5049125;28;44229;-73
2023/09/16 05:06:22;;;;;;;12.57;6.90;;;23.20;75.50;;;;;;5083547;28;43452;-71
2023/09/16 05:08:54;;;;;;;12.03;7.17;;;23.10;75.70;;;;;;5089025;27;45129;-69
2023/09/16 05:11:22;;;;;;;15.63;7.83;;;23.00;76.10;;;;;;5095721;27;43433;-69
2023/09/16 05:13:57;;;;;;;14.30;7.23;;;23.00;76.30;;;;;;5111608;27;43600;-69
2023/09/16 05:16:25;;;;;;;14.90;7.67;;;23.00;76.40;;;;;;5097473;28;43368;-69
2023/09/16 05:18:57;;;;;;;11.57;7.20;;;22.90;76.40;;;;;;5087764;27;43948;-68
2023/09/16 05:21:25;;;;;;;12.70;6.97;;;22.90;76.70;;;;;;5086788;28;44940;-69
2023/09/16 05:23:54;;;;;;;12.23;6.80;;;22.80;77.00;;;;;;5099256;27;43457;-69
2023/09/16 05:26:26;;;;;;;13.30;7.13;;;22.80;76.90;;;;;;5085062;27;43634;-69
2023/09/16 05:28:56;;;;;;;11.87;6.57;;;22.80;77.60;;;;;;5086555;28;46061;-69
2023/09/16 05:31:27;;;;;;;13.67;6.90;;;22.80;77.00;;;;;;5085649;27;44420;-69
2023/09/16 05:33:55;;;;;;;11.37;6.93;;;22.70;78.00;;;;;;5088563;28;43478;-69
2023/09/16 05:36:26;;;;;;;12.97;7.30;;;22.70;77.20;;;;;;5089525;28;43582;-69
2023/09/16 05:38:57;;;;;;;13.13;7.17;;;22.80;76.90;;;;;;5089718;28;45679;-69
2023/09/16 05:41:25;;;;;;;13.67;7.43;;;23.00;76.30;;;;;;5103891;27;43415;-69
2023/09/16 05:43:53;;;;;;;14.80;7.90;;;23.20;75.90;;;;;;5094133;28;44000;-69
2023/09/16 05:46:25;;;;;;;10.77;7.13;;;23.20;75.70;;;;;;5104236;27;43447;-70
2023/09/16 05:48:56;;;;;;;13.17;7.23;;;23.20;75.70;;;;;;5107397;28;43890;-69
2023/09/16 05:51:25;;;;;;;11.13;6.43;;;23.10;75.80;;;;;;5089365;28;44874;-70
2023/09/16 05:53:53;;;;;;;12.33;7.10;;;23.00;76.20;;;;;;5086955;28;43507;-70
2023/09/16 05:56:22;;;;;;;11.53;7.03;;;23.00;76.40;;;;;;5089517;28;43582;-69
2023/09/16 05:58:52;;;;;;;9.77;6.40;;;22.90;76.40;;;;;;5099083;27;45967;-69
2023/09/16 06:01:22;;;;;;;11.00;7.30;;;22.90;76.50;;;;;;5090354;27;43415;-69
2023/09/16 06:03:51;;;;;;;11.40;7.03;;;22.80;76.90;;;;;;5111229;28;43497;-69
2023/09/16 06:06:19;;;;;;;10.43;7.30;;;22.80;77.00;;;;;;5101582;27;43428;-69
2023/09/16 06:08:48;;;;;;;11.03;6.90;;;22.80;77.00;;;;;;5077317;27;44014;-69
2023/09/16 06:11:16;;;;;;;10.13;6.80;;;22.70;76.90;;;;;;5110427;27;44682;-69
2023/09/16 06:13:46;;;;;;;10.90;7.00;;;22.70;77.30;;;;;;5097119;27;43797;-69
2023/09/16 06:16:14;;;;;;;11.13;7.17;;;22.70;77.40;;;;;;5095914;28;43625;-69
2023/09/16 06:18:44;;;;;;;9.07;6.30;;;22.70;77.30;;;;;;5081170;28;45736;-69
2023/09/16 06:21:12;;;;;;;11.67;7.37;;;22.70;77.20;;;;;;5101276;27;45047;-69
2023/09/16 06:23:40;;;;;;;12.10;7.10;;;22.60;77.10;;;;;;5106715;28;48747;-69
2023/09/16 06:26:08;;;;;;;10.87;6.67;;;22.60;77.50;;;;;;5108752;27;43678;-68
2023/09/16 06:28:37;;;;;;;9.23;6.17;;;22.70;77.50;;;;;;5102917;28;45937;-68
2023/09/16 06:31:07;;;;;;;11.93;7.03;;;22.80;77.10;;;;;;5093362;27;44804;-69
2023/09/16 06:33:38;;;;;;;11.20;6.80;;;22.90;76.60;;;;;;5086762;28;43772;-68
2023/09/16 06:36:06;;;;;;;8.33;6.47;;;23.10;76.20;;;;;;5101039;27;43546;-69
2023/09/16 06:38:34;;;;;;;9.80;6.97;;;23.10;76.00;;;;;;5098684;28;45672;-68
2023/09/16 06:41:03;;;;;;;9.03;6.50;;;23.10;76.00;;;;;;5094378;28;44733;-69
2023/09/16 06:43:32;;;;;;;11.93;6.47;;;23.00;76.10;;;;;;5110852;28;43432;-69
2023/09/16 06:46:00;;;;;;;10.33;7.00;;;22.90;76.40;;;;;;5093879;27;43509;-69
2023/09/16 06:48:29;;;;;;;10.13;6.47;;;22.90;76.50;;;;;;5090700;28;45690;-69
2023/09/16 06:51:00;;;;;;;9.60;6.47;;;22.80;76.50;;;;;;5097687;27;43376;-67
2023/09/16 06:53:28;;;;;;;10.17;6.30;;;22.70;76.60;;;;;;5102119;27;43347;-68
2023/09/16 06:55:56;;;;;;;7.07;6.00;;;22.70;77.10;;;;;;5111112;27;43438;-69
2023/09/16 06:58:24;;;;;;;8.70;6.47;;;22.70;77.10;;;;;;5101166;27;43613;-68
2023/09/16 07:00:52;;;;;;;10.87;6.43;;;22.70;77.10;;;;;;5105824;27;43432;-68
2023/09/16 07:03:21;;;;;;;8.33;6.40;;;22.70;77.10;;;;;;5107096;27;43550;-67
2023/09/16 07:05:52;;;;;;;8.83;6.30;;;22.60;77.30;;;;;;5091380;27;43528;-68
2023/09/16 07:08:20;;;;;;;8.17;6.07;;;22.60;77.50;;;;;;5102714;27;43612;-68
2023/09/16 07:10:48;;;;;;;8.57;6.27;;;22.70;77.40;;;;;;5107331;27;43359;-68
2023/09/16 07:13:16;;;;;;;8.33;6.33;;;22.80;77.00;;;;;;5105039;27;43880;-68
2023/09/16 07:15:44;;;;;;;10.20;6.90;;;22.90;76.40;;;;;;5107054;27;43390;-68
2023/09/16 07:18:12;;;;;;;8.27;6.23;;;23.00;76.20;;;;;;5101515;27;43862;-69
2023/09/16 07:20:40;;;;;;;8.80;6.60;;;23.00;76.20;;;;;;5107455;27;43475;-69
2023/09/16 07:23:09;;;;;;;8.53;6.47;;;22.90;76.10;;;;;;5105117;27;43472;-68
2023/09/16 07:25:37;;;;;;;7.80;6.57;;;22.90;76.50;;;;;;5106008;27;43379;-68
2023/09/16 07:28:07;;;;;;;9.20;6.60;;;22.80;76.90;;;;;;5097014;28;43604;-66
2023/09/16 07:30:36;;;;;;;9.37;6.80;;;22.80;76.90;;;;;;5095012;28;43813;-66
2023/09/16 07:33:05;;;;;;;7.17;5.83;;;22.70;76.90;;;;;;5089492;28;43434;-67
2023/09/16 07:35:33;;;;;;;8.47;6.00;;;22.70;77.00;;;;;;5084782;28;43500;-67
2023/09/16 07:38:01;;;;;;;7.67;6.17;;;22.60;77.40;;;;;;5086074;28;43615;-69
2023/09/16 07:40:32;;;;;;;8.57;6.33;;;22.60;77.40;;;;;;5088051;28;43412;-67
2023/09/16 07:43:00;;;;;;;9.43;6.10;;;22.60;77.30;;;;;;5091661;28;43373;-67
2023/09/16 07:45:28;;;;;;;7.73;6.13;;;22.60;77.30;;;;;;5095147;27;43991;-67
2023/09/16 07:47:56;;;;;;;7.00;6.20;;;22.60;77.60;;;;;;5094362;28;43931;-66
2023/09/16 07:50:25;;;;;;;6.60;5.97;;;22.60;77.70;;;;;;5088965;28;43423;-66
2023/09/16 07:52:53;;;;;;;8.03;6.17;;;22.70;77.50;;;;;;5094365;28;43618;-66
2023/09/16 07:55:20;;;;;;;7.97;6.10;;;22.80;77.10;;;;;;5091517;28;43412;-67
2023/09/16 07:57:50;;;;;;;7.63;5.80;;;22.90;76.60;;;;;;5094700;28;43595;-65
2023/09/16 08:00:18;;;;;;;6.03;5.43;;;23.00;76.30;;;;;;5087982;28;43412;-66
2023/09/16 08:02:46;;;;;;;7.00;6.13;;;23.00;76.20;;;;;;5091317;28;43407;-66
2023/09/16 08:05:14;;;;;;;8.73;6.20;;;22.90;76.20;;;;;;5079947;28;44048;-67
2023/09/16 08:07:42;;;;;;;6.43;5.47;;;22.90;76.60;;;;;;5097239;28;43936;-66
2023/09/16 08:10:11;;;;;;;6.23;5.63;;;22.80;76.90;;;;;;5091629;28;43437;-66
2023/09/16 08:12:39;;;;;;;7.43;6.17;;;22.80;76.90;;;;;;5077592;28;43350;-67
2023/09/16 08:15:11;;;;;;;7.00;6.07;;;22.70;76.80;;;;;;5085763;28;43518;-66
2023/09/16 08:17:39;;;;;;;6.00;5.43;;;22.70;77.00;;;;;;5090105;28;43603;-65
2023/09/16 08:20:08;;;;;;;6.10;5.47;;;22.60;77.40;;;;;;5069454;28;44371;-66
2023/09/16 08:22:36;;;;;;;5.93;5.33;;;22.70;77.50;;;;;;5087460;28;43443;-66
2023/09/16 08:25:05;;;;;;;6.50;5.70;;;22.70;77.20;;;;;;5090359;28;43367;-67
2023/09/16 08:27:33;;;;;;;6.00;5.37;;;22.80;77.00;;;;;;5075425;28;46913;-66
2023/09/16 08:30:01;;;;;;;6.00;5.40;;;22.80;76.90;;;;;;5076827;28;44730;-67
2023/09/16 08:32:30;;;;;;;5.87;5.37;;;22.70;76.90;;;;;;5092900;28;43390;-66
2023/09/16 08:34:58;;;;;;;6.90;5.77;;;22.70;77.20;;;;;;5092468;28;43441;-66
2023/09/16 08:37:26;;;;;;;5.60;5.10;;;22.70;77.20;;;;;;5094483;28;44004;-66
2023/09/16 08:39:54;;;;;;;5.80;5.30;;;22.70;77.10;;;;;;5093201;28;43479;-66
2023/09/16 08:42:24;;;;;;;6.53;5.60;;;22.70;77.10;;;;;;5073992;28;43424;-66
2023/09/16 08:44:53;;;;;;;6.20;5.07;;;22.60;77.20;;;;;;5087204;28;43475;-67
2023/09/16 08:47:24;;;;;;;6.50;5.53;;;22.60;77.60;;;;;;5093014;28;43595;-65
2023/09/16 08:49:54;;;;;;;5.93;5.30;;;22.60;77.40;;;;;;5079680;28;43926;-66
2023/09/16 08:52:22;;;;;;;5.63;5.10;;;22.60;77.40;;;;;;5072749;28;43478;-65
2023/09/16 08:54:50;;;;;;;5.40;4.90;;;22.60;78.20;;;;;;5077501;28;44052;-66
2023/09/16 08:57:19;;;;;;;5.30;4.80;;;22.50;77.90;;;;;;5087267;28;43543;-67
2023/09/16 08:59:47;;;;;;;6.00;5.20;;;22.60;77.80;;;;;;5067812;28;44415;-65
2023/09/16 09:02:15;;;;;;;6.33;5.20;;;22.70;77.60;;;;;;5094615;28;43554;-66
2023/09/16 09:04:43;;;;;;;5.67;5.07;;;22.80;77.10;;;;;;5093755;28;43393;-65
2023/09/16 09:07:15;;;;;;;4.93;4.53;;;22.90;76.60;;;;;;5090856;28;43881;-65
2023/09/16 09:09:43;;;;;;;5.20;4.80;;;22.90;76.40;;;;;;5090299;28;43432;-66
2023/09/16 09:12:11;;;;;;;5.60;5.20;;;22.90;76.40;;;;;;5090347;28;43284;-65
2023/09/16 09:14:39;;;;;;;4.93;4.53;;;22.80;76.50;;;;;;5096233;28;43593;-65
2023/09/16 09:17:08;;;;;;;5.17;4.77;;;22.80;76.90;;;;;;5096332;28;43612;-65
2023/09/16 09:19:37;;;;;;;4.90;4.50;;;22.80;77.00;;;;;;5092120;28;43915;-67
2023/09/16 09:22:05;;;;;;;5.00;4.60;;;22.70;76.90;;;;;;5088860;28;43368;-67
2023/09/16 09:24:34;;;;;;;4.90;4.50;;;22.70;77.00;;;;;;5088897;28;43537;-67
2023/09/16 09:27:02;;;;;;;4.90;4.50;;;22.60;77.30;;;;;;5082457;28;43660;-67
2023/09/16 09:29:30;;;;;;;5.30;4.90;;;22.60;77.40;;;;;;5089356;28;43418;-67
2023/09/16 09:31:58;;;;;;;5.00;4.60;;;22.60;77.40;;;;;;5072300;28;43413;-69
2023/09/16 09:34:28;;;;;;;4.73;4.43;;;22.60;77.50;;;;;;5084340;28;43416;-67
2023/09/16 09:36:56;;;;;;;4.63;4.23;;;22.60;77.60;;;;;;5081576;28;43759;-67
2023/09/16 09:39:24;;;;;;;4.77;4.43;;;22.60;77.80;;;;;;5075311;28;45307;-67
2023/09/16 09:41:53;;;;;;;4.97;4.57;;;22.60;77.70;;;;;;5081374;28;43482;-66
2023/09/16 09:44:23;;;;;;;4.40;4.13;;;22.70;77.30;;;;;;5089233;28;43436;-66
2023/09/16 09:46:51;;;;;;;4.80;4.40;;;22.80;76.80;;;;;;5094917;28;43616;-70
2023/09/16 09:49:19;;;;;;;4.93;4.63;;;22.90;77.20;;;;;;5110059;28;43522;-69
2023/09/16 09:51:48;;;;;;;4.47;4.17;;;22.90;76.50;;;;;;5102624;28;43880;-68
2023/09/16 09:54:17;;;;;;;4.60;4.30;;;22.90;76.70;;;;;;5113115;27;43356;-69
2023/09/16 09:56:45;;;;;;;5.30;4.80;;;22.80;76.90;;;;;;5109213;27;43610;-69
2023/09/16 09:59:15;;;;;;;4.43;4.13;;;22.80;76.90;;;;;;5111215;28;43447;-69
2023/09/16 10:01:43;;;;;;;4.40;4.10;;;22.70;77.00;;;;;;5104458;27;43508;-69
2023/09/16 10:04:11;;;;;;;4.20;3.90;;;22.70;77.20;;;;;;5103655;27;43483;-69
2023/09/16 10:06:39;;;;;;;4.20;4.00;;;22.70;77.30;;;;;;5095796;28;43743;-68
2023/09/16 10:09:07;;;;;;;4.30;4.10;;;22.60;77.20;;;;;;5100681;27;44121;-69
2023/09/16 10:11:36;;;;;;;4.40;4.13;;;22.60;77.30;;;;;;5103505;27;43457;-69
2023/09/16 10:14:04;;;;;;;4.30;4.00;;;22.60;77.50;;;;;;5092973;28;43480;-69
2023/09/16 10:16:33;;;;;;;4.30;4.00;;;22.60;77.60;;;;;;5113069;27;43615;-69
2023/09/16 10:19:01;;;;;;;4.57;4.37;;;22.60;77.60;;;;;;5098776;27;43558;-69
2023/09/16 10:21:29;;;;;;;4.60;4.37;;;22.60;77.20;;;;;;5105163;27;43696;-69
2023/09/16 10:23:57;;;;;;;4.20;4.00;;;22.70;77.00;;;;;;5112238;27;43398;-69
2023/09/16 10:26:25;;;;;;;3.83;3.70;;;22.80;76.60;;;;;;5109384;27;43607;-68
2023/09/16 10:28:53;;;;;;;4.63;4.23;;;22.90;76.10;;;;;;5095175;27;44829;-68
2023/09/16 10:31:22;;;;;;;4.03;3.83;;;22.90;76.00;;;;;;5106143;27;43699;-69
2023/09/16 10:33:53;;;;;;;4.13;3.93;;;22.90;76.30;;;;;;5083829;28;43407;-68
2023/09/16 10:36:21;;;;;;;4.30;4.10;;;22.90;76.70;;;;;;5100761;27;45982;-69
2023/09/16 10:38:50;;;;;;;4.43;4.13;;;22.80;76.80;;;;;;5100142;27;43316;-68
2023/09/16 10:41:18;;;;;;;4.10;3.90;;;22.80;76.70;;;;;;5096739;28;43392;-69
2023/09/16 10:43:47;;;;;;;4.30;4.00;;;22.80;77.80;;;;;;5103637;28;43411;-68
2023/09/16 10:46:15;;;;;;;3.80;3.60;;;22.70;77.20;;;;;;5105116;27;43902;-69
2023/09/16 10:48:43;;;;;;;4.70;4.40;;;22.70;77.40;;;;;;5108246;27;43491;-68
2023/09/16 10:51:17;;;;;;;4.23;3.93;;;22.70;77.30;;;;;;5095722;27;43419;-68
2023/09/16 10:53:45;;;;;;;4.00;3.80;;;22.70;77.40;;;;;;5092864;28;43467;-68
2023/09/16 10:56:16;;;;;;;3.60;3.50;;;22.70;77.50;;;;;;5093422;28;43715;-69
2023/09/16 10:58:47;;;;;;;3.63;3.50;;;22.70;77.70;;;;;;5054252;28;44868;-72
2023/09/16 11:01:19;;;;;;;4.70;4.13;;;22.60;77.70;;;;;;5078028;28;43465;-72
2023/09/16 11:03:50;;;;;;;4.40;4.20;;;22.60;77.50;;;;;;5074171;28;43507;-72
2023/09/16 11:06:20;;;;;;;4.03;3.83;;;22.70;77.20;;;;;;5065073;28;45931;-72
2023/09/16 11:08:48;;;;;;;3.47;3.30;;;22.80;77.10;;;;;;5077086;28;43328;-72
2023/09/16 11:11:16;;;;;;;3.90;3.70;;;22.90;76.50;;;;;;5076300;28;43376;-72
2023/09/16 11:13:44;;;;;;;4.10;3.90;;;23.00;76.20;;;;;;5075291;28;43612;-71
2023/09/16 11:16:12;;;;;;;4.03;3.83;;;22.90;76.10;;;;;;5080367;28;43702;-72
2023/09/16 11:18:42;;;;;;;3.87;3.70;;;22.90;76.30;;;;;;5075767;28;43472;-72
2023/09/16 11:21:12;;;;;;;4.03;3.87;;;22.90;76.50;;;;;;5072842;28;43543;-71
2023/09/16 11:23:41;;;;;;;4.00;3.80;;;22.80;76.40;;;;;;5058622;28;47736;-72
2023/09/16 11:26:09;;;;;;;3.70;3.50;;;22.80;76.60;;;;;;5081431;28;45292;-71
2023/09/16 11:28:37;;;;;;;3.73;3.63;;;22.80;76.80;;;;;;5078341;28;43387;-72
2023/09/16 11:31:05;;;;;;;3.90;3.70;;;22.70;76.90;;;;;;5082998;28;43438;-73
2023/09/16 11:33:34;;;;;;;3.60;3.40;;;22.70;76.90;;;;;;5061300;28;43475;-71
2023/09/16 11:36:13;;;;;;;3.57;3.47;;;22.70;77.00;;;;;;5061578;28;45638;-71
2023/09/16 11:38:55;;;;;;;3.63;3.50;;;22.70;77.20;;;;;;5074730;28;43898;-71
2023/09/16 11:41:23;;;;;;;3.80;3.70;;;22.60;77.10;;;;;;5077900;28;43811;-72
2023/09/16 11:43:51;;;;;;;3.90;3.70;;;22.60;77.20;;;;;;5073164;28;44061;-73
2023/09/16 11:46:19;;;;;;;3.73;3.63;;;22.60;77.00;;;;;;5078385;28;44057;-72
2023/09/16 11:48:51;;;;;;;3.93;3.73;;;22.70;76.90;;;;;;5081642;28;43973;-71
2023/09/16 11:51:21;;;;;;;3.93;3.73;;;22.80;76.50;;;;;;5076733;28;43388;-72
2023/09/16 11:53:50;;;;;;;3.67;3.47;;;22.90;76.10;;;;;;5079184;28;43471;-71
2023/09/16 11:56:21;;;;;;;3.60;3.40;;;23.00;76.00;;;;;;5081439;28;45339;-73
2023/09/16 11:58:49;;;;;;;3.73;3.63;;;22.90;76.20;;;;;;5077460;28;43488;-71
2023/09/16 12:01:21;;;;;;;3.73;3.43;;;22.90;76.40;;;;;;5073507;28;43493;-73
2023/09/16 12:03:49;;;;;;;3.43;3.33;;;22.80;76.50;;;;;;5081343;28;43458;-72
2023/09/16 12:06:20;;;;;;;4.00;3.70;;;22.80;76.60;;;;;;5079961;28;43918;-71
2023/09/16 12:08:48;;;;;;;3.60;3.50;;;22.70;76.70;;;;;;5080764;28;43745;-65
2023/09/16 12:11:16;;;;;;;3.47;3.37;;;22.70;76.90;;;;;;5086755;28;43439;-65
2023/09/16 12:13:46;;;;;;;3.63;3.53;;;22.70;77.10;;;;;;5089838;28;43434;-65
2023/09/16 12:16:15;;;;;;;3.77;3.60;;;22.70;77.00;;;;;;5089146;28;43870;-67
2023/09/16 12:18:44;;;;;;;3.60;3.50;;;22.60;77.00;;;;;;5087216;28;43480;-67
2023/09/16 12:21:12;;;;;;;3.70;3.60;;;22.60;77.10;;;;;;5090204;28;43443;-65
2023/09/16 12:23:41;;;;;;;3.40;3.30;;;22.60;77.30;;;;;;5085457;28;43397;-65
2023/09/16 12:26:09;;;;;;;3.47;3.37;;;22.60;77.40;;;;;;5084037;28;45780;-69
2023/09/16 12:28:38;;;;;;;3.50;3.40;;;22.60;77.30;;;;;;5086484;28;43459;-66
2023/09/16 12:31:09;;;;;;;3.60;3.50;;;22.60;77.40;;;;;;5080011;28;43420;-66
2023/09/16 12:33:42;;;;;;;3.47;3.37;;;22.60;77.40;;;;;;5089596;28;43520;-66
2023/09/16 12:36:14;;;;;;;3.33;3.20;;;22.50;77.50;;;;;;5089791;28;43694;-67
2023/09/16 12:38:42;;;;;;;3.50;3.40;;;22.60;77.40;;;;;;5085298;28;43521;-67
2023/09/16 12:41:09;;;;;;;3.63;3.43;;;22.60;77.10;;;;;;5082685;28;43484;-69
2023/09/16 12:43:37;;;;;;;3.20;3.10;;;22.80;76.90;;;;;;5076581;28;43420;-67
2023/09/16 12:46:08;;;;;;;3.20;3.10;;;22.90;76.40;;;;;;5076443;28;44105;-66
2023/09/16 12:48:36;;;;;;;3.13;3.03;;;22.90;76.10;;;;;;5081038;28;43452;-67
2023/09/16 12:51:04;;;;;;;4.67;3.40;;;22.90;76.10;;;;;;5070645;28;43403;-66
2023/09/16 12:53:32;;;;;;;3.37;3.27;;;22.90;76.30;;;;;;5082112;28;43480;-66